Latest Coastal Weather Observations for Cape Ferguson

IDQ60701

Issued at 10:45 am EST Thursday 17 April 2014 (issued every 10 minutes, with the page automatically refreshed every 10 minutes)

About coastal observations | Map of coastal stations | Coastal observations for QLD | Marine services | Other Formats
Station Details ID: 032182 Name: CAPE FERGUSON NTC AWS Lat: -19.28 Lon: 147.06 Height: 0.0 m
Data from the previous 72 hours. | See also: Recent months for locations in Queensland
Date/Time
EST
Temp

°C
Wind Pressure Rain
since 9am
mm
Weather Cloud Vis
km
Sea
Height
m
Swell
Dir
 
Speed
knots
Gust
knots
hPa Trend Height
m
Period
s
Dir
17/10:30am 26.2 SE 6 8 1016.6 - - - - - - - - -
17/10:00am 26.0 ESE 6 7 1016.7 - - - - - - - - -
17/09:30am 25.7 SE 6 9 1016.6 - - - - - - - - -
17/09:00am 25.5 SE 8 10 1016.4 - - - - - - - - -
17/08:30am 25.3 SE 8 10 1016.1 - - - - - - - - -
17/08:00am 25.4 SE 8 10 1015.8 - - - - - - - - -
17/07:30am 25.4 SSE 8 10 1015.4 - - - - - - - - -
17/07:00am 25.4 SE 8 11 1015.0 - - - - - - - - -
17/06:30am 25.5 SE 6 8 1014.5 - - - - - - - - -
17/06:00am 26.1 ESE 8 11 1014.1 - - - - - - - - -
17/05:30am 25.8 ESE 8 10 1013.6 - - - - - - - - -
17/05:00am 26.1 E 9 12 1013.6 - - - - - - - - -
17/04:30am 26.1 E 8 11 1013.5 - - - - - - - - -
17/04:00am 26.2 E 8 9 1013.5 - - - - - - - - -
17/03:30am 26.2 E 8 10 1013.5 - - - - - - - - -
17/03:00am 26.2 E 9 11 1013.5 - - - - - - - - -
17/02:30am 26.3 E 11 13 1013.5 - - - - - - - - -
17/02:00am 26.2 ESE 10 13 1013.7 - - - - - - - - -
17/01:30am 26.3 E 10 11 1014.1 - - - - - - - - -
17/01:00am 26.3 ESE 10 12 1014.3 - - - - - - - - -
17/12:30am 26.4 E 10 12 1014.5 - - - - - - - - -
17/12:00am 26.4 ESE 10 11 1014.7 - - - - - - - - -
 
Date/Time
EST
Temp

°C
Wind Pressure Rain
since 9am
mm
Weather Cloud Vis
km
Sea
Height
m
Swell
Dir
 
Speed
knots
Gust
knots
hPa Trend Height
m
Period
s
Dir
16/11:30pm 26.4 E 10 12 1014.8 - - - - - - - - -
16/11:00pm 26.4 E 11 12 1014.8 - - - - - - - - -
16/10:30pm 26.4 E 10 13 1014.9 - - - - - - - - -
16/10:00pm 26.4 E 10 12 1014.9 - - - - - - - - -
16/09:30pm 26.6 E 10 12 1014.7 - - - - - - - - -
16/09:00pm 26.5 E 9 11 1014.5 - - - - - - - - -
16/08:30pm 26.5 E 10 12 1014.2 - - - - - - - - -
16/08:00pm 26.5 E 10 12 1014.0 - - - - - - - - -
16/07:30pm 26.6 E 11 13 1013.7 - - - - - - - - -
16/07:00pm 26.5 E 10 12 1013.2 - - - - - - - - -
16/06:30pm 26.5 E 10 11 1012.9 - - - - - - - - -
16/06:00pm 26.4 E 10 12 1012.8 - - - - - - - - -
16/05:30pm 26.5 E 9 10 1012.7 - - - - - - - - -
16/05:00pm 26.5 E 9 12 1012.5 - - - - - - - - -
16/04:30pm 26.7 E 10 12 1012.1 - - - - - - - - -
16/04:00pm 26.5 E 10 13 1012.1 - - - - - - - - -
16/03:30pm 26.5 E 9 12 1012.1 - - - - - - - - -
16/03:00pm 26.4 E 9 11 1012.1 - - - - - - - - -
16/02:30pm 26.3 E 9 11 1012.4 - - - - - - - - -
16/02:00pm 26.3 E 8 11 1012.8 - - - - - - - - -
16/01:30pm 26.3 ENE 8 10 1013.0 - - - - - - - - -
16/01:00pm 26.0 E 8 11 1013.3 - - - - - - - - -
16/12:30pm 26.1 E 8 10 1013.6 - - - - - - - - -
16/12:00pm 26.0 E 8 10 1013.9 - - - - - - - - -
16/11:30am 25.9 E 9 11 1014.4 - - - - - - - - -
16/11:00am 25.9 E 11 12 1014.6 - - - - - - - - -
16/10:30am 26.0 ESE 10 12 1014.9 - - - - - - - - -
16/10:00am 25.7 SE 9 11 1015.0 - - - - - - - - -
16/09:30am 25.5 SE 11 13 1015.1 - - - - - - - - -
16/09:00am 25.2 SE 10 12 1015.0 - - - - - - - - -
16/08:30am 24.9 SE 8 10 1014.8 - - - - - - - - -
16/08:00am 24.7 SSE 9 11 1014.6 - - - - - - - - -
16/07:30am 24.5 SSE 11 14 1014.6 - - - - - - - - -
16/07:00am 24.5 SSE 10 12 1014.2 - - - - - - - - -
16/06:30am 24.7 SSE 10 12 1013.9 - - - - - - - - -
16/06:00am 25.3 SE 8 9 1013.7 - - - - - - - - -
16/05:30am 26.1 E 9 11 1013.3 - - - - - - - - -
16/05:00am 26.1 E 9 11 1013.1 - - - - - - - - -
16/04:30am 26.1 E 10 12 1012.8 - - - - - - - - -
16/04:00am 26.0 E 10 12 1012.6 - - - - - - - - -
16/03:30am 26.1 E 10 12 1012.5 - - - - - - - - -
16/03:00am 26.1 E 10 14 1012.6 - - - - - - - - -
16/02:30am 26.2 E 10 12 1012.8 - - - - - - - - -
16/02:00am 26.1 E 8 10 1012.9 - - - - - - - - -
16/01:30am 26.1 E 6 9 1013.1 - - - - - - - - -
16/01:00am 26.2 E 8 10 1013.4 - - - - - - - - -
16/12:30am 26.3 E 10 12 1013.7 - - - - - - - - -
16/12:00am 26.3 E 10 12 1013.9 - - - - - - - - -
 
Date/Time
EST
Temp

°C
Wind Pressure Rain
since 9am
mm
Weather Cloud Vis
km
Sea
Height
m
Swell
Dir
 
Speed
knots
Gust
knots
hPa Trend Height
m
Period
s
Dir
15/11:30pm 26.3 E 11 12 1014.0 - - - - - - - - -
15/11:00pm 26.3 E 12 14 1014.0 - - - - - - - - -
15/10:30pm 26.4 ENE 11 13 1014.0 - - - - - - - - -
15/10:00pm 26.3 E 11 13 1014.0 - - - - - - - - -
15/09:30pm 26.4 ENE 10 12 1013.9 - - - - - - - - -
15/09:00pm 26.4 ENE 7 9 1013.7 - - - - - - - - -
15/08:30pm 26.3 ENE 8 10 1013.3 - - - - - - - - -
15/08:00pm 26.4 ENE 7 8 1013.2 - - - - - - - - -
15/07:30pm 26.3 E 6 8 1012.9 - - - - - - - - -
15/07:00pm 26.3 E 6 8 1012.5 - - - - - - - - -
15/06:30pm 26.3 E 6 8 1012.2 - - - - - - - - -
15/06:00pm 26.2 ENE 6 7 1011.9 - - - - - - - - -
15/05:30pm 26.2 ENE 5 8 1011.6 - - - - - - - - -
15/05:00pm 26.1 ENE 6 9 1011.4 - - - - - - - - -
15/04:30pm 26.2 ENE 6 8 1011.3 - - - - - - - - -
15/04:00pm 26.1 ENE 6 8 1011.2 - - - - - - - - -
15/03:30pm 26.1 ENE 7 9 1011.2 - - - - - - - - -
15/03:00pm 26.2 ENE 6 9 1011.2 - - - - - - - - -
15/02:30pm 26.1 ENE 7 10 1011.3 - - - - - - - - -
15/02:00pm 26.2 ENE 7 10 1011.7 - - - - - - - - -
15/01:30pm 26.3 ENE 7 8 1011.9 - - - - - - - - -
15/01:00pm 26.1 E 7 9 1012.2 - - - - - - - - -
15/12:30pm 26.1 E 7 9 1012.7 - - - - - - - - -
15/12:00pm 26.1 E 7 9 1013.1 - - - - - - - - -
15/11:30am 26.1 E 6 8 1013.4 - - - - - - - - -
15/11:00am 26.0 E 6 8 1013.8 - - - - - - - - -
15/10:30am 25.9 ESE 6 8 1013.9 - - - - - - - - -
15/10:00am 25.7 ESE 6 7 1014.2 - - - - - - - - -
15/09:30am 25.4 SE 8 9 1014.1 - - - - - - - - -
15/09:00am 25.3 SSE 8 9 1014.0 - - - - - - - - -
15/08:30am 26.3 E 8 10 1013.5 - - - - - - - - -
15/08:00am 26.1 E 8 10 1013.2 - - - - - - - - -
15/07:30am 26.3 ENE 7 9 1012.9 - - - - - - - - -
15/07:00am 26.1 E 10 12 1012.8 - - - - - - - - -
15/06:30am 26.1 E 11 13 1012.4 - - - - - - - - -
15/06:00am 26.2 ENE 10 12 1012.3 - - - - - - - - -
15/05:30am 26.2 ENE 10 12 1012.1 - - - - - - - - -
15/05:00am 26.1 ENE 7 10 1011.9 - - - - - - - - -
15/04:30am 26.1 ENE 9 11 1011.7 - - - - - - - - -
15/04:00am 26.1 ENE 7 10 1011.6 - - - - - - - - -
15/03:30am 25.9 ENE 3 7 1011.3 - - - - - - - - -
15/03:00am 26.0 ENE 6 9 1011.3 - - - - - - - - -
15/02:30am 26.0 ENE 6 9 1011.5 - - - - - - - - -
15/02:00am 26.1 ENE 7 9 1011.5 - - - - - - - - -
15/01:30am 26.1 ENE 7 8 1011.5 - - - - - - - - -
15/01:00am 26.1 ENE 7 9 1011.6 - - - - - - - - -
15/12:30am 26.3 ENE 8 10 1011.7 - - - - - - - - -
15/12:00am 26.4 ENE 8 9 1011.8 - - - - - - - - -
 
Date/Time
EST
Temp

°C
Wind Pressure Rain
since 9am
mm
Weather Cloud Vis
km
Sea
Height
m
Swell
Dir
 
Speed
knots
Gust
knots
hPa Trend Height
m
Period
s
Dir
14/11:30pm 26.5 ENE 7 9 1012.0 - - - - - - - - -
14/11:00pm 26.5 ENE 3 6 1011.9 - - - - - - - - -
14/10:30pm 26.6 ENE 3 6 1011.7 - - - - - - - - -
14/10:00pm 26.6 ENE 3 6 1011.6 - - - - - - - - -
14/09:30pm 26.9 ENE 4 7 1011.6 - - - - - - - - -
14/09:00pm 26.7 NE 2 6 1011.5 - - - - - - - - -
14/08:30pm 27.0 ENE 3 6 1011.2 - - - - - - - - -
14/08:00pm 26.9 NNE 4 6 1010.8 - - - - - - - - -
14/07:30pm 26.9 NNE 4 7 1010.3 - - - - - - - - -
14/07:00pm 26.9 NNE 4 6 1009.8 - - - - - - - - -
14/06:30pm 27.0 NNE 5 7 1009.4 - - - - - - - - -
14/06:00pm 27.1 N 5 7 1009.0 - - - - - - - - -
14/05:30pm 27.4 NNE 5 7 1008.7 - - - - - - - - -
14/05:00pm 27.5 NNE 5 7 1008.4 - - - - - - - - -
14/04:30pm 27.7 NE 4 6 1008.2 - - - - - - - - -
14/04:00pm 27.8 NE 4 6 1008.0 - - - - - - - - -
14/03:30pm 27.6 ENE 3 5 1007.9 - - - - - - - - -
14/03:00pm 27.7 NE 3 6 1007.9 - - - - - - - - -
14/02:30pm 27.4 NE 4 8 1008.2 - - - - - - - - -
14/02:00pm 26.9 ENE 4 6 1008.3 - - - - - - - - -
14/01:30pm 26.7 NE 3 6 1008.5 - - - - - - - - -
14/01:00pm 26.6 ENE 4 6 1008.9 - - - - - - - - -
14/12:30pm 26.5 E 4 6 1009.3 - - - - - - - - -
14/12:00pm 26.1 SE 5 6 1009.5 - - - - - - - - -
14/11:30am 25.7 SE 4 5 1009.9 - - - - - - - - -
14/11:00am 25.5 SE 4 5 1010.3 - - - - - - - - -

Other Formats:

Comma delimited format used in spreadsheet applications
http://www.bom.gov.au/fwo/IDQ60701/IDQ60701.94297.axf

JavaScript Object Notation format (JSON) in row-major order
http://www.bom.gov.au/fwo/IDQ60701/IDQ60701.94297.json